Marlborough, MA

8:54 AM EDT on October 22, 2014 (GMT -0400)
KMAMARLB9 | Change Station
CLOSE
Current Station
Personal Weather Station
Location: Marlborough, MA
Elevation: 328 ft
Nearby Weather Stations
Active Advisory: Areal Flood Watch

Elev 328 ft 42.37 °N, 71.50 °W | Updated 3 seconds ago

Rain
Rain
51.6 °F
Feels Like 51.6 °F
N
0.0
Wind Variable Wind from NW
Gusts 3.0 mph

Today
High -- | Low -- °F
--% Chance of Precip.
Yesterday
High -- | Low -- °F
Precip. -- in
7:07 AM 5:53 PM
Waning Crescent, 2% visible
Pressure 30.02 in
Visibility 2.5 miles
Clouds Mostly Cloudy 700 ft
Overcast 1500 ft
Dew Point 51 °F
Humidity 98%
Rainfall 0.07 in
Snow Depth Not available.
UV 0 out of 12
Pollen .30 out of 12
Air Quality Not available.
Flu Activity No Activity
SPECI KBED 221241Z 04015G21KT 2 1/2SM -RA BR BKN007 OVC015 12/11 A3002 RMK AO2 PK WND 04026/1218 VIS 1 3/4V3 CIG 006V012 P0002 T01170111

More Conditions Fewer Conditions

Pressure 30.02 in
Visibility 2.5 miles
Clouds Mostly Cloudy 700 ft
Overcast 1500 ft
Dew Point 51 °F
Humidity 98%
Rainfall 0.07 in
Snow Depth Not available.
UV 0 out of 12
Pollen .30 out of 12
Air Quality Not available.
Flu Activity No Activity
SPECI KBED 221241Z 04015G21KT 2 1/2SM -RA BR BKN007 OVC015 12/11 A3002 RMK AO2 PK WND 04026/1218 VIS 1 3/4V3 CIG 006V012 P0002 T01170111

More Conditions Fewer Conditions

10-Day Weather Forecast

Almanac

Astronomy

Oct. 22, 2014 Rise Set
Actual Time 7:07 AM EDT 5:53 PM EDT
Civil Twilight 6:38 AM EDT 6:21 PM EDT
Nautical Twilight 6:05 AM EDT 6:54 PM EDT
Astronomical Twilight 5:33 AM EDT 7:26 PM EDT
Moon 5:44 AM EDT 5:19 PM EDT
Length of Visible Light 11h 43m
Length of Day
10h 46m
Tomorrow will be 2m 41s shorter.
Waning Crescent, 2% of the Moon is Illuminated
Today
Waning Crescent
Oct 23
New
Oct 30
First Quarter
Nov 6
Full
Nov 14
Last Quarter

Today's Extremes

State Highs State Lows

Community

WunderPhotos

Upload Photos

1,763,907 photos uploaded!

Nearby

Air Quality

  Air Quality AQ Index Pollutant
Wednesday Good
PM2.5
Thursday Good
PM2.5

Snow Depth

Station Depth Elevation
No new snow has been reported.

Earthquake Activity

City Distance Mag. Time & Date
No recent earthquake activity has been reported nearby.
Minimum magnitude displayed is 2.5.

Coastal Water Temperatures

Place Temperature
Boston, MA 57.0 °F
Providence, RI 62.1 °F
Fall River, MA 63.0 °F
Conimicut Light, RI 61.0 °F

Nearby Weather Stations